Aviation Digital Data Service (ADDS)

Output produced by METARs form (1802 UTC 12 December 2017)
found at http://aviationweather.gov/adds/metars/
 
KINT 121720Z 1218/1318 29010G19KT P6SM OVC060 
     FM130000 29012G22KT P6SM SKC 
     FM130700 27008KT P6SM SKC